イヌヴィック の空港の天気 - METARとTAF

イヌヴィック空港 ( CYEV / YEV ) - カナダ ノースウエスト準州イヌヴィック
飛行場実況気象(Metar)
観測時間01/19 04:00 MST (01/19 11:00 UTC)
風向・風速東 4m/s
視程10km以上
天気現象弱い雪
全天の4割程度の雲 雲底高度 1160m
全天を覆う雲 雲底高度 3050m
気温-19℃
湿度77%
気圧1016.1hPa
METARCYEV 191100Z 09007KT 10SM -SN SCT038 OVC100 M19/M22 A2997 RMK SC4AC4 SLP161
過去の天気等 Google飛行場航空写真 Wunderground天気予報

過去48時間のMETAR

飛行場予報(TAF)
発表時間: 1/18 23:38 MST (1/19 06:38 UTC)
予報対象時間: 19日0時 MST ~ 19日12時 MST
風向・風速東 6m/s
視程10km以上
全天の4割程度の雲 雲底高度 1220m
全天の8割程度の雲 雲底高度 3050m
19日0時 MST ~ 19日2時 MST に一時的に
視程6440m
天気現象弱い雪
全天の8割程度の雲 雲底高度 1220m
19日2時 MST から
風向・風速東 5m/s
視程10km以上
全天の8割程度の雲 雲底高度 1220m
全天の8割程度の雲 雲底高度 3050m
19日2時 MST ~ 19日12時 MST に一時的に
視程6440m
天気現象弱い雪
全天の8割程度の雲 雲底高度 610m
全天の8割程度の雲 雲底高度 1220m
TAF CYEV 190638Z 1907/1919 08012KT P6SM SCT040 BKN100
TEMPO 1907/1909 4SM -SN BKN040
FM190900 09010KT P6SM BKN040 BKN100
TEMPO 1909/1919 4SM -SN BKN020 BKN040 RMK NXT FCST BY 191300Z